createdAt,value
2023-02-19T00:01:53.578Z,21.35
2023-02-19T00:04:24.719Z,21.75
2023-02-19T00:06:52.419Z,22.70
2023-02-19T00:09:20.439Z,21.30
2023-02-19T00:11:48.500Z,22.27
2023-02-19T00:14:20.072Z,26.63
2023-02-19T00:16:47.846Z,26.02
2023-02-19T00:19:18.768Z,26.95
2023-02-19T00:21:46.105Z,23.83
2023-02-19T00:24:14.911Z,28.95
2023-02-19T00:26:43.778Z,30.13
2023-02-19T00:29:18.036Z,25.63
2023-02-19T00:31:46.625Z,26.73
2023-02-19T00:34:14.905Z,24.60
2023-02-19T00:36:43.264Z,26.38
2023-02-19T00:39:15.670Z,29.20
2023-02-19T00:41:44.272Z,25.48
2023-02-19T00:44:13.211Z,26.85
2023-02-19T00:46:44.165Z,27.13
2023-02-19T00:49:19.765Z,28.38
2023-02-19T00:51:50.561Z,21.35
2023-02-19T00:54:18.055Z,24.20
2023-02-19T00:56:46.453Z,24.63
2023-02-19T00:59:14.118Z,26.90
2023-02-19T01:01:44.538Z,22.73
2023-02-19T01:04:12.654Z,23.30
2023-02-19T01:06:39.761Z,24.48
2023-02-19T01:09:07.907Z,20.45
2023-02-19T01:11:36.065Z,18.42
2023-02-19T01:14:05.075Z,31.10
2023-02-19T01:16:32.702Z,18.27
2023-02-19T01:19:00.360Z,10.05
2023-02-19T01:21:29.804Z,10.88
2023-02-19T01:23:58.386Z,8.05
2023-02-19T01:26:30.591Z,18.40
2023-02-19T01:28:59.848Z,17.55
2023-02-19T01:31:28.235Z,11.02
2023-02-19T01:33:59.040Z,16.88
2023-02-19T01:36:27.650Z,14.43
2023-02-19T01:38:55.228Z,6.80
2023-02-19T01:41:25.781Z,12.70
2023-02-19T01:44:01.871Z,10.52
2023-02-19T01:46:37.790Z,20.27
2023-02-19T01:49:32.252Z,30.63
2023-02-19T01:52:16.194Z,23.90
2023-02-19T01:54:45.807Z,7.97
2023-02-19T01:57:21.636Z,9.18
2023-02-19T01:59:55.260Z,10.68
2023-02-19T02:02:25.211Z,12.55
2023-02-19T02:04:52.574Z,15.40
2023-02-19T02:07:38.384Z,21.52
2023-02-19T02:10:21.842Z,11.77
2023-02-19T02:12:51.669Z,11.98
2023-02-19T02:15:19.948Z,21.10
2023-02-19T02:17:58.103Z,51.38
2023-02-19T02:20:52.066Z,20.73
2023-02-19T02:23:31.964Z,20.00
2023-02-19T02:26:28.913Z,18.88
2023-02-19T02:29:39.513Z,21.17
2023-02-19T02:32:16.173Z,20.92
2023-02-19T02:34:54.546Z,21.27
2023-02-19T02:37:23.899Z,22.48
2023-02-19T02:39:54.068Z,27.33
2023-02-19T02:42:28.966Z,20.25
2023-02-19T02:45:36.128Z,30.73
2023-02-19T02:48:36.908Z,21.90
2023-02-19T02:51:14.429Z,22.38
2023-02-19T02:54:13.229Z,21.63
2023-02-19T02:56:43.513Z,21.30
2023-02-19T02:59:15.019Z,33.80
2023-02-19T03:02:11.087Z,26.08
2023-02-19T03:05:23.031Z,25.45
2023-02-19T03:08:00.587Z,23.95
2023-02-19T03:10:49.191Z,24.65
2023-02-19T03:13:41.663Z,23.88
2023-02-19T03:16:35.641Z,24.65
2023-02-19T03:19:20.664Z,22.80
2023-02-19T03:22:20.110Z,25.15
2023-02-19T03:25:17.832Z,30.30
2023-02-19T03:27:48.200Z,50.40
2023-02-19T03:30:29.704Z,32.45
2023-02-19T03:33:15.649Z,19.52
2023-02-19T03:36:05.885Z,21.90
2023-02-19T03:38:40.966Z,16.60
2023-02-19T03:41:33.935Z,23.52
2023-02-19T03:44:24.848Z,26.27
2023-02-19T03:47:19.532Z,24.80
2023-02-19T03:50:00.527Z,24.55
2023-02-19T03:53:07.247Z,22.33
2023-02-19T03:55:54.851Z,20.10
2023-02-19T03:58:43.505Z,18.90
2023-02-19T04:01:19.574Z,19.55
2023-02-19T04:04:09.631Z,22.27
2023-02-19T04:06:39.178Z,21.25
2023-02-19T04:09:10.086Z,21.10
2023-02-19T04:11:39.429Z,17.98
2023-02-19T04:14:26.840Z,17.90
2023-02-19T04:17:01.353Z,17.25
2023-02-19T04:19:32.924Z,18.37
2023-02-19T04:22:02.069Z,20.75
2023-02-19T04:24:39.288Z,22.27
2023-02-19T04:27:07.322Z,19.00
2023-02-19T04:29:34.774Z,20.40
2023-02-19T04:32:02.046Z,20.25
2023-02-19T04:34:29.628Z,21.83
2023-02-19T04:36:56.697Z,20.90
2023-02-19T04:39:23.714Z,18.10
2023-02-19T04:41:50.780Z,17.88
2023-02-19T04:44:17.816Z,18.50
2023-02-19T04:46:44.847Z,19.65
2023-02-19T04:49:11.994Z,16.73
2023-02-19T04:51:40.003Z,17.90
2023-02-19T04:54:07.586Z,21.48
2023-02-19T04:56:34.746Z,16.65
2023-02-19T04:59:01.874Z,12.05
2023-02-19T05:01:29.012Z,13.48
2023-02-19T05:03:55.996Z,23.20
2023-02-19T05:06:23.011Z,11.32
2023-02-19T05:08:50.107Z,15.38
2023-02-19T05:11:17.956Z,10.82
2023-02-19T05:13:45.541Z,10.48
2023-02-19T05:16:16.205Z,8.20
2023-02-19T05:18:46.857Z,9.35
2023-02-19T05:21:16.854Z,9.48
2023-02-19T05:23:44.574Z,8.27
2023-02-19T05:26:21.736Z,11.90
2023-02-19T05:28:53.378Z,16.35
2023-02-19T05:31:21.358Z,12.73
2023-02-19T05:33:51.475Z,15.85
2023-02-19T05:36:21.406Z,16.50
2023-02-19T05:38:55.906Z,18.02
2023-02-19T05:41:29.355Z,20.05
2023-02-19T05:43:58.255Z,19.97
2023-02-19T05:46:32.394Z,20.63
2023-02-19T05:48:59.846Z,24.45
2023-02-19T05:51:27.934Z,25.33
2023-02-19T05:53:56.544Z,21.13
2023-02-19T05:56:26.554Z,19.77
2023-02-19T05:58:54.922Z,16.40
2023-02-19T06:01:26.366Z,16.48
2023-02-19T06:03:57.246Z,15.65
2023-02-19T06:06:26.503Z,16.75
2023-02-19T06:08:54.558Z,15.10
2023-02-19T06:11:22.017Z,13.68
2023-02-19T06:13:50.522Z,12.00
2023-02-19T06:16:18.809Z,12.48
2023-02-19T06:18:46.372Z,15.27
2023-02-19T06:21:14.251Z,17.48
2023-02-19T06:23:41.896Z,18.73
2023-02-19T06:26:20.430Z,26.50
2023-02-19T06:28:49.467Z,18.58
2023-02-19T06:31:18.384Z,22.85
2023-02-19T06:33:46.079Z,25.90
2023-02-19T06:36:16.190Z,23.40
2023-02-19T06:38:43.630Z,22.67
2023-02-19T06:41:12.394Z,26.95
2023-02-19T06:43:39.594Z,29.35
2023-02-19T06:46:07.858Z,27.33
2023-02-19T06:48:35.873Z,30.80
2023-02-19T06:51:03.502Z,30.52
2023-02-19T06:53:30.738Z,32.22
2023-02-19T06:56:08.051Z,31.70
2023-02-19T06:58:35.543Z,35.17
2023-02-19T07:01:03.283Z,33.67
2023-02-19T07:03:30.458Z,33.20
2023-02-19T07:05:59.836Z,37.42
2023-02-19T07:08:29.307Z,38.25
2023-02-19T07:10:58.909Z,36.03
2023-02-19T07:13:27.295Z,39.55
2023-02-19T07:16:11.381Z,34.70
2023-02-19T07:18:40.574Z,35.15
2023-02-19T07:21:13.986Z,35.58
2023-02-19T07:23:42.896Z,36.80
2023-02-19T07:26:17.319Z,35.17
2023-02-19T07:28:46.399Z,39.85
2023-02-19T07:31:15.628Z,40.53
2023-02-19T07:33:44.709Z,39.45
2023-02-19T07:36:13.471Z,39.90
2023-02-19T07:38:40.604Z,46.25
2023-02-19T07:41:08.045Z,42.55
2023-02-19T07:43:37.824Z,40.42
2023-02-19T07:46:08.156Z,39.13
2023-02-19T07:48:36.735Z,39.63
2023-02-19T07:51:06.101Z,41.25
2023-02-19T07:53:35.584Z,47.92
2023-02-19T07:56:08.209Z,41.00
2023-02-19T07:58:36.034Z,43.13
2023-02-19T08:01:17.800Z,47.95
2023-02-19T08:03:46.231Z,45.47
2023-02-19T08:06:14.167Z,42.17
2023-02-19T08:08:41.842Z,41.70
2023-02-19T08:11:28.684Z,33.55
2023-02-19T08:13:55.808Z,38.03
2023-02-19T08:16:40.824Z,37.90
2023-02-19T08:19:10.145Z,38.78
2023-02-19T08:21:37.311Z,46.10
2023-02-19T08:24:04.852Z,44.28
2023-02-19T08:26:33.287Z,37.25
2023-02-19T08:29:00.505Z,29.13
2023-02-19T08:31:27.864Z,38.95
2023-02-19T08:33:55.096Z,33.45
2023-02-19T08:36:23.099Z,32.42
2023-02-19T08:38:50.222Z,32.55
2023-02-19T08:41:17.718Z,31.35
2023-02-19T08:43:45.071Z,32.33
2023-02-19T08:46:12.760Z,31.42
2023-02-19T08:48:40.710Z,31.60
2023-02-19T08:51:11.925Z,29.85
2023-02-19T08:53:41.101Z,30.88
2023-02-19T08:56:14.488Z,30.10
2023-02-19T08:58:42.284Z,28.40
2023-02-19T09:01:15.594Z,33.22
2023-02-19T09:03:43.432Z,28.92
2023-02-19T09:06:19.579Z,28.67
2023-02-19T09:08:47.254Z,28.75
2023-02-19T09:11:15.220Z,29.60
2023-02-19T09:13:43.293Z,26.63
2023-02-19T09:16:11.874Z,28.83
2023-02-19T09:18:39.566Z,27.38
2023-02-19T09:21:07.341Z,29.15
2023-02-19T09:23:36.615Z,27.77
2023-02-19T09:26:07.706Z,26.70
2023-02-19T09:28:35.960Z,28.88
2023-02-19T09:31:08.769Z,27.05
2023-02-19T09:33:36.366Z,27.00
2023-02-19T09:36:04.612Z,30.42
2023-02-19T09:38:31.762Z,31.58
2023-02-19T09:41:00.214Z,26.70
2023-02-19T09:43:30.030Z,27.42
2023-02-19T09:46:07.890Z,24.85
2023-02-19T09:48:35.015Z,27.35
2023-02-19T09:51:03.239Z,29.10
2023-02-19T09:53:41.330Z,28.95
2023-02-19T09:56:09.829Z,26.70
2023-02-19T09:58:52.923Z,25.25
2023-02-19T10:01:20.682Z,26.13
2023-02-19T10:03:49.206Z,28.92
2023-02-19T10:06:24.248Z,27.98
2023-02-19T10:08:57.776Z,26.83
2023-02-19T10:11:26.306Z,26.90
2023-02-19T10:14:13.434Z,31.20
2023-02-19T10:16:44.012Z,29.73
2023-02-19T10:19:13.498Z,33.78
2023-02-19T10:21:42.046Z,36.90
2023-02-19T10:24:22.229Z,33.75
2023-02-19T10:26:50.842Z,32.08
2023-02-19T10:29:20.237Z,31.38
2023-02-19T10:31:48.097Z,30.60
2023-02-19T10:34:22.952Z,29.83
2023-02-19T10:36:51.703Z,31.23
2023-02-19T10:39:22.122Z,32.20
2023-02-19T10:41:51.493Z,31.65
2023-02-19T10:44:24.432Z,31.27
2023-02-19T10:46:55.399Z,37.25
2023-02-19T10:49:44.139Z,28.00
2023-02-19T10:52:18.482Z,32.72
2023-02-19T10:54:46.732Z,34.05
2023-02-19T10:57:21.268Z,34.15
2023-02-19T11:00:01.284Z,30.27
2023-02-19T11:02:31.377Z,29.63
2023-02-19T11:05:16.656Z,29.60
2023-02-19T11:07:56.763Z,30.73
2023-02-19T11:10:42.493Z,32.20
2023-02-19T11:13:25.080Z,31.13
2023-02-19T11:15:54.934Z,29.20
2023-02-19T11:18:33.199Z,24.88
2023-02-19T11:21:05.484Z,29.65
2023-02-19T11:23:35.962Z,27.67
2023-02-19T11:26:21.439Z,25.55
2023-02-19T11:28:58.606Z,29.38
2023-02-19T11:31:27.590Z,28.73
2023-02-19T11:34:04.424Z,27.50
2023-02-19T11:36:37.373Z,28.92
2023-02-19T11:39:17.130Z,25.10
2023-02-19T11:42:15.209Z,27.27
2023-02-19T11:44:55.311Z,27.15
2023-02-19T11:48:09.490Z,27.20
2023-02-19T11:50:54.311Z,24.30
2023-02-19T11:53:29.138Z,26.73
2023-02-19T11:56:08.485Z,27.30
2023-02-19T11:59:01.325Z,25.88
2023-02-19T12:02:05.780Z,23.25
2023-02-19T12:05:19.955Z,25.67
2023-02-19T12:08:27.676Z,27.95
2023-02-19T12:11:27.338Z,28.25
2023-02-19T12:14:25.420Z,27.77
2023-02-19T12:16:56.005Z,22.92
2023-02-19T12:19:55.651Z,24.70
2023-02-19T12:22:43.330Z,20.50
2023-02-19T12:25:34.065Z,24.52
2023-02-19T12:28:22.750Z,25.70
2023-02-19T12:30:55.636Z,23.20
2023-02-19T12:33:59.737Z,24.52
2023-02-19T12:36:35.746Z,23.52
2023-02-19T12:39:44.335Z,21.35
2023-02-19T12:42:56.240Z,25.92
2023-02-19T12:45:54.833Z,24.02
2023-02-19T12:48:59.136Z,25.63
2023-02-19T12:51:42.768Z,19.37
2023-02-19T12:54:35.170Z,26.20
2023-02-19T12:57:09.896Z,25.20
2023-02-19T12:59:47.417Z,22.33
2023-02-19T13:02:27.028Z,15.85
2023-02-19T13:05:41.442Z,14.30
2023-02-19T13:09:03.459Z,17.60
2023-02-19T13:11:39.774Z,14.80
2023-02-19T13:14:16.573Z,13.57
2023-02-19T13:16:51.558Z,16.95
2023-02-19T13:19:18.929Z,15.45
2023-02-19T13:22:14.008Z,14.75
2023-02-19T13:24:43.381Z,18.05
2023-02-19T13:27:54.472Z,15.30
2023-02-19T13:30:58.323Z,15.00
2023-02-19T13:33:48.881Z,14.32
2023-02-19T13:36:24.453Z,17.13
2023-02-19T13:38:52.165Z,13.95
2023-02-19T13:41:30.995Z,18.77
2023-02-19T13:44:05.038Z,13.23
2023-02-19T13:49:31.615Z,13.95
2023-02-19T13:52:04.315Z,15.73
2023-02-19T13:54:36.033Z,16.00
2023-02-19T13:57:18.164Z,14.82
2023-02-19T13:59:46.761Z,15.48
2023-02-19T14:02:22.966Z,13.00
2023-02-19T14:05:11.292Z,15.35
2023-02-19T14:07:55.597Z,13.70
2023-02-19T14:11:02.654Z,14.32
2023-02-19T14:13:51.115Z,16.27
2023-02-19T14:16:52.529Z,17.92
2023-02-19T14:19:51.600Z,19.67
2023-02-19T14:22:52.868Z,21.90
2023-02-19T14:25:34.858Z,26.40
2023-02-19T14:28:14.855Z,19.80
2023-02-19T14:30:57.414Z,19.80
2023-02-19T14:33:33.379Z,20.23
2023-02-19T14:36:32.522Z,24.65
2023-02-19T14:39:13.676Z,23.52
2023-02-19T14:41:46.546Z,25.10
2023-02-19T14:44:27.899Z,20.92
2023-02-19T14:47:03.650Z,21.92
2023-02-19T14:49:50.254Z,20.10
2023-02-19T14:52:28.987Z,22.15
2023-02-19T14:55:20.703Z,20.15
2023-02-19T14:57:50.719Z,23.80
2023-02-19T15:00:40.216Z,22.85
2023-02-19T15:03:48.976Z,21.80
2023-02-19T15:06:19.604Z,25.15
2023-02-19T15:08:54.862Z,21.75
2023-02-19T15:11:26.361Z,22.35
2023-02-19T15:14:03.431Z,21.75
2023-02-19T15:16:36.011Z,26.05
2023-02-19T15:19:08.623Z,24.27
2023-02-19T15:21:41.669Z,22.52
2023-02-19T15:24:08.963Z,26.15
2023-02-19T15:26:41.595Z,21.10
2023-02-19T15:29:18.964Z,21.85
2023-02-19T15:31:58.941Z,22.60
2023-02-19T15:34:29.275Z,27.60
2023-02-19T15:37:09.400Z,23.88
2023-02-19T15:39:44.729Z,24.92
2023-02-19T15:42:20.077Z,18.73
2023-02-19T15:45:00.395Z,25.27
2023-02-19T15:47:39.852Z,26.20
2023-02-19T15:50:23.912Z,24.35
2023-02-19T15:53:01.682Z,24.00
2023-02-19T15:55:33.254Z,22.05
2023-02-19T15:58:20.650Z,24.17
2023-02-19T16:00:57.970Z,22.65
2023-02-19T16:03:28.492Z,21.60
2023-02-19T16:06:11.471Z,23.55
2023-02-19T16:08:44.385Z,23.23
2023-02-19T16:11:23.685Z,23.80
2023-02-19T16:13:51.964Z,25.20
2023-02-19T16:16:27.678Z,23.90
2023-02-19T16:18:54.833Z,38.92
2023-02-19T16:21:25.169Z,31.40
2023-02-19T16:24:04.042Z,32.17
2023-02-19T16:26:42.840Z,30.17
2023-02-19T16:29:36.497Z,28.52
2023-02-19T16:32:07.974Z,28.20
2023-02-19T16:34:42.949Z,25.83
2023-02-19T16:37:58.870Z,25.67
2023-02-19T16:40:54.383Z,23.80
2023-02-19T16:43:31.583Z,28.88
2023-02-19T16:46:00.136Z,28.30
2023-02-19T16:48:27.388Z,27.00
2023-02-19T16:50:54.934Z,28.13
2023-02-19T16:53:25.329Z,24.88
2023-02-19T16:55:52.727Z,30.77
2023-02-19T16:58:23.604Z,26.83
2023-02-19T17:00:53.529Z,29.33
2023-02-19T17:03:25.058Z,28.88
2023-02-19T17:05:53.233Z,27.80
2023-02-19T17:08:34.042Z,25.67
2023-02-19T17:11:04.612Z,27.17
2023-02-19T17:13:32.220Z,31.90
2023-02-19T17:16:00.133Z,27.67
2023-02-19T17:18:27.970Z,31.58
2023-02-19T17:21:05.972Z,27.60
2023-02-19T17:23:33.031Z,32.30
2023-02-19T17:26:00.207Z,28.25
2023-02-19T17:28:27.258Z,27.35
2023-02-19T17:30:54.463Z,32.03
2023-02-19T17:33:21.621Z,32.70
2023-02-19T17:35:48.882Z,30.42
2023-02-19T17:38:15.924Z,29.17
2023-02-19T17:40:42.981Z,33.25
2023-02-19T17:43:11.010Z,30.48
2023-02-19T17:45:38.687Z,36.30
2023-02-19T17:48:06.788Z,51.42
2023-02-19T17:50:34.010Z,46.55
2023-02-19T17:53:01.076Z,36.08
2023-02-19T17:55:28.133Z,37.65
2023-02-19T17:57:55.567Z,36.67
2023-02-19T18:00:29.306Z,36.78
2023-02-19T18:02:57.383Z,37.53
2023-02-19T18:05:25.230Z,45.28
2023-02-19T18:07:52.299Z,44.97
2023-02-19T18:10:21.689Z,40.60
2023-02-19T18:12:49.416Z,37.63
2023-02-19T18:15:23.648Z,38.00
2023-02-19T18:17:51.110Z,40.38
2023-02-19T18:20:26.229Z,43.63
2023-02-19T18:22:55.215Z,39.22
2023-02-19T18:25:23.441Z,34.33
2023-02-19T18:27:50.959Z,35.92
2023-02-19T18:30:22.857Z,39.53
2023-02-19T18:32:50.990Z,35.75
2023-02-19T18:35:19.982Z,45.38
2023-02-19T18:37:52.699Z,39.97
2023-02-19T18:40:26.323Z,36.92
2023-02-19T18:42:56.815Z,41.50
2023-02-19T18:45:23.757Z,47.25
2023-02-19T18:47:51.207Z,45.70
2023-02-19T18:50:20.182Z,50.92
2023-02-19T18:52:47.353Z,44.92
2023-02-19T18:55:14.467Z,39.58
2023-02-19T18:57:41.470Z,38.95
2023-02-19T19:00:11.563Z,51.25
2023-02-19T19:02:48.608Z,51.67
2023-02-19T19:05:23.654Z,51.30
2023-02-19T19:10:20.324Z,43.33
2023-02-19T19:12:47.929Z,44.88
2023-02-19T19:15:18.458Z,42.15
2023-02-19T19:17:48.127Z,43.95
2023-02-19T19:20:19.368Z,37.50
2023-02-19T19:22:49.935Z,42.13
2023-02-19T19:25:17.502Z,40.40
2023-02-19T19:27:44.639Z,40.88
2023-02-19T19:30:12.491Z,47.28
2023-02-19T19:32:40.120Z,42.70
2023-02-19T19:35:07.778Z,38.92
2023-02-19T19:37:34.802Z,38.97
2023-02-19T19:40:03.960Z,41.65
2023-02-19T19:42:31.078Z,46.17
2023-02-19T19:44:58.335Z,37.65
2023-02-19T19:47:25.393Z,50.05
2023-02-19T19:49:52.467Z,44.97
2023-02-19T19:52:19.632Z,44.03
2023-02-19T19:54:46.639Z,45.05
2023-02-19T19:57:16.355Z,46.15
2023-02-19T19:59:43.337Z,43.95
2023-02-19T20:02:11.127Z,51.20
2023-02-19T20:04:38.106Z,45.13
2023-02-19T20:07:05.326Z,48.85
2023-02-19T20:09:32.409Z,51.75
2023-02-19T20:11:59.738Z,58.40
2023-02-19T20:14:27.544Z,64.20
2023-02-19T20:16:55.686Z,67.60
2023-02-19T20:19:23.930Z,74.90
2023-02-19T20:21:53.701Z,77.10
2023-02-19T20:24:25.965Z,74.88
2023-02-19T20:27:02.083Z,80.53
2023-02-19T20:29:33.186Z,81.07
2023-02-19T20:32:03.689Z,91.85
2023-02-19T20:34:31.590Z,99.50
2023-02-19T20:36:59.729Z,99.15
2023-02-19T20:39:29.257Z,107.80
2023-02-19T20:41:58.487Z,115.80
2023-02-19T20:44:28.565Z,110.40
2023-02-19T20:46:58.190Z,120.88
2023-02-19T20:49:29.566Z,124.90
2023-02-19T20:51:59.885Z,118.22
2023-02-19T20:54:30.809Z,117.70
2023-02-19T20:57:02.219Z,119.53
2023-02-19T20:59:35.091Z,123.32
2023-02-19T21:02:14.723Z,122.57
2023-02-19T21:04:42.255Z,125.57
2023-02-19T21:07:09.319Z,125.68
2023-02-19T21:09:36.684Z,137.23
2023-02-19T21:12:04.160Z,133.85
2023-02-19T21:14:31.732Z,141.27
2023-02-19T21:16:58.787Z,134.77
2023-02-19T21:19:25.826Z,145.18
2023-02-19T21:21:52.868Z,138.85
2023-02-19T21:24:19.973Z,147.30
2023-02-19T21:26:47.158Z,147.15
2023-02-19T21:29:21.422Z,151.75
2023-02-19T21:34:30.213Z,134.57
2023-02-19T21:36:57.777Z,151.63
2023-02-19T21:39:27.977Z,156.00
2023-02-19T21:41:55.113Z,155.55
2023-02-19T21:44:22.262Z,158.57
2023-02-19T21:46:49.336Z,162.65
2023-02-19T21:49:17.478Z,156.20
2023-02-19T21:51:47.984Z,155.25
2023-02-19T21:54:24.667Z,166.70
2023-02-19T21:56:53.618Z,161.95
2023-02-19T21:59:22.631Z,163.35
2023-02-19T22:01:51.188Z,163.55
2023-02-19T22:04:21.806Z,170.55
2023-02-19T22:06:48.832Z,170.20
2023-02-19T22:09:16.232Z,177.07
2023-02-19T22:11:43.665Z,171.93
2023-02-19T22:14:10.795Z,169.57
2023-02-19T22:16:37.881Z,166.85
2023-02-19T22:19:05.196Z,174.70
2023-02-19T22:21:33.194Z,169.75
2023-02-19T22:24:02.293Z,171.70
2023-02-19T22:26:34.232Z,172.73
2023-02-19T22:29:08.066Z,183.65
2023-02-19T22:31:35.861Z,178.60
2023-02-19T22:34:03.826Z,178.55
2023-02-19T22:36:39.880Z,163.23
2023-02-19T22:39:16.459Z,172.55
2023-02-19T22:41:43.725Z,173.65
2023-02-19T22:44:11.504Z,174.77
2023-02-19T22:46:38.639Z,175.02
2023-02-19T22:49:07.344Z,185.05
2023-02-19T22:51:35.745Z,193.88
2023-02-19T22:54:02.843Z,185.95
2023-02-19T22:56:30.070Z,174.80
2023-02-19T22:58:59.007Z,166.85
2023-02-19T23:01:26.603Z,203.07
2023-02-19T23:03:59.104Z,175.30
2023-02-19T23:06:32.772Z,190.90
2023-02-19T23:09:06.257Z,169.80
2023-02-19T23:11:37.318Z,176.70
2023-02-19T23:14:05.691Z,187.40
2023-02-19T23:16:36.152Z,178.95
2023-02-19T23:19:11.510Z,195.18
2023-02-19T23:21:43.893Z,205.70
2023-02-19T23:24:12.594Z,201.00
2023-02-19T23:26:51.180Z,198.23
2023-02-19T23:29:22.774Z,189.50
2023-02-19T23:31:51.030Z,221.80
2023-02-19T23:34:19.550Z,208.30
2023-02-19T23:36:50.037Z,193.90
2023-02-19T23:39:20.986Z,218.15
2023-02-19T23:41:54.724Z,204.52
2023-02-19T23:44:24.359Z,199.27
2023-02-19T23:46:52.550Z,188.25
2023-02-19T23:49:20.564Z,189.48
2023-02-19T23:51:47.696Z,212.43
2023-02-19T23:54:15.230Z,194.50
2023-02-19T23:56:42.284Z,215.32
2023-02-19T23:59:09.312Z,207.02
